Погода Дунаевщинана 2 недели

Смоленская область, Россия

23 мая-05 июня
  • 23мая
    Сегодня
    +9°
    +23°
    Ясно и безоблачно
    ВремяПогодаТемператураВлажностьДавлениеВетер, м/сВероятность осадков
    00:00Ясно и безоблачно+14°C95 %749 мм2.7 м/с2 %
    03:00Ясно и безоблачно+13°C95 %749 мм3.0 м/с2 %
    06:00Ясно и безоблачно+13°C90 %750 мм3.9 м/с2 %
    09:00Ясно и безоблачно+18°C71 %751 мм4.5 м/с2 %
    12:00Ясно и безоблачно+22°C55 %752 мм5.7 м/с2 %
    15:00Ясно и безоблачно+23°C46 %752 мм6.1 м/с2 %
    18:00Ясно и безоблачно+21°C44 %752 мм5.7 м/с2 %
    21:00Ясно и безоблачно+17°C51 %753 мм5.2 м/с2 %
  • 24мая
    Пятница
    +8°
    +20°
    Ясно и безоблачно
    ВремяПогодаТемператураВлажностьДавлениеВетер, м/сВероятность осадков
    00:00Ясно и безоблачно+13°C55 %754 мм4.8 м/с2 %
    03:00Ясно и безоблачно+11°C58 %755 мм4.8 м/с2 %
    06:00Ясно и безоблачно+9°C58 %756 мм4.8 м/с2 %
    09:00Ясно и безоблачно+15°C51 %756 мм4.6 м/с2 %
    12:00Ясно и безоблачно+18°C42 %756 мм5.0 м/с2 %
    15:00Ясно и безоблачно+20°C39 %756 мм5.1 м/с2 %
    18:00Ясно и безоблачно+19°C41 %755 мм4.6 м/с2 %
    21:00Ясно и безоблачно+15°C54 %755 мм3.7 м/с2 %
  • 25мая
    Суббота
    +8°
    +23°
    Практически безоблачно
    ВремяПогодаТемператураВлажностьДавлениеВетер, м/сВероятность осадков
    00:00Ясно и безоблачно+11°C61 %755 мм3.4 м/с2 %
    03:00Ясно и безоблачно+10°C62 %755 мм3.4 м/с2 %
    06:00Ясно и безоблачно+9°C60 %755 мм3.4 м/с2 %
    09:00Ясно и безоблачно+16°C48 %755 мм3.1 м/с2 %
    12:00Ясно и безоблачно+21°C35 %755 мм3.2 м/с2 %
    15:00Практически безоблачно+22°C34 %754 мм2.4 м/с2 %
    18:00Ясно и безоблачно+21°C34 %753 мм2.6 м/с2 %
    21:00Практически безоблачно+15°C61 %752 мм2.9 м/с2 %
  • 26мая
    Воскресенье
    +10°
    +24°
    Ясно и безоблачно
    ВремяПогодаТемператураВлажностьДавлениеВетер, м/сВероятность осадков
    00:00Облачно с прояснениями+11°C74 %752 мм2.7 м/с2 %
    03:00Облачно с прояснениями+10°C79 %752 мм2.1 м/с2 %
    06:00Облачно с прояснениями+10°C79 %752 мм1.4 м/с2 %
    09:00Облачно с прояснениями+18°C56 %752 мм1.0 м/с2 %
    12:00Небольшая облачность+22°C38 %752 мм0.9 м/с2 %
    15:00Ясно и безоблачно+23°C37 %752 мм0.5 м/с2 %
    18:00Ясно и безоблачно+23°C37 %751 мм1.5 м/с4 %
    21:00Ясно и безоблачно+16°C62 %751 мм2.7 м/с3 %
  • 27мая
    Понедельник
    +13°
    +26°
    Ясно и безоблачно
    ВремяПогодаТемператураВлажностьДавлениеВетер, м/сВероятность осадков
    00:00Практически безоблачно+13°C71 %751 мм1.8 м/с2 %
    03:00Ясно и безоблачно+12°C74 %751 мм2.5 м/с2 %
    06:00Практически безоблачно+12°C67 %752 мм2.5 м/с2 %
    09:00Практически безоблачно+20°C59 %752 мм1.6 м/с2 %
    12:00Ясно и безоблачно+24°C38 %752 мм2.5 м/с11 %
    15:00Ясно и безоблачно+25°C39 %752 мм2.7 м/с22 %
    18:00Практически безоблачно+25°C42 %751 мм2.2 м/с28 %
    21:00Практически безоблачно+20°C69 %752 мм3.4 м/с8 %
Мы используем cookies
Соглашаюсь